Terminal Aerodrome Forecast
Issued by NWS Wilmington, OH

Home | Current Version | Previous Version | Text Only | Print | Product List | Glossary On
Versions: 1 2 3 4 5 6 7 8 9 10 11 12 13 14 15 16 17 18 19 20 21 22 23 24 25
158
FTUS41 KILN 240351 AAE
TAFCMH
TAF AMD
KCMH 240351Z 2404/2424 25005KT P6SM VCSH BKN013 OVC021
      TEMPO 2404/2405 26010G16KT 2SM -RA BR BKN006 OVC015
     FM240600 31006KT P6SM SCT013 BKN040
     FM241400 28011KT P6SM SCT100=

USA.gov is the U.S. government's official web portal to all federal, state and local government web resources and services.